Aviation Digital Data Service (ADDS)

Output produced by METARs form (0011 UTC 23 March 2019)
found at http://www.aviationweather.gov/metar/data/
 
METAR text: EPWA 230000Z 10004KT 080V140 CAVOK 03/M03 Q1031 NOSIG
Conditions at: EPWA (WARSAW/OKECIE , PL) observed 0000 UTC 23 March 2019
Temperature: 3.0°C (37°F)
Dewpoint: -3.0°C (27°F) [RH = 65%]
Pressure (altimeter): 30.44 inches Hg (1031.0 mb)
Winds: from the E (100 degrees) at 5 MPH (4 knots; 2.1 m/s)
Visibility: 6 or more miles (10+ km)
Ceiling: ceiling and visibility are OK
Clouds: unknown
Weather: no significant weather observed at this time

METAR text: EPWA 222330Z 10002KT CAVOK 03/M04 Q1031 NOSIG
Conditions at: EPWA (WARSAW/OKECIE , PL) observed 2330 UTC 22 March 2019
Temperature: 3.0°C (37°F)
Dewpoint: -4.0°C (25°F) [RH = 60%]
Pressure (altimeter): 30.44 inches Hg (1031.0 mb)
Winds: from the E (100 degrees) at 2 MPH (2 knots; 1.0 m/s)
Visibility: 6 or more miles (10+ km)
Ceiling: ceiling and visibility are OK
Clouds: unknown
Weather: no significant weather observed at this time

Forecast for: EPWA (WARSAW/OKECIE , PL)
Text: TAF EPWA 222330Z 2300/2324 VRB04KT CAVOK
Forecast period: 0000 to 0900 UTC 23 March 2019
Forecast type: FROM: standard forecast or significant change
Winds: variable direction winds at 5 MPH (4 knots; 2.1 m/s)
Visibility: 6 or more miles 10+ km)
Ceiling: unknown
Clouds: missing
Weather: NSW  (no significant weather)
Text: PROB30 2302/2305 3000 BR
Forecast period: 0200 to 0500 UTC 23 March 2019
Forecast type: PROBABLE: 30 percent likelihood of the following during this time
Visibility: 1.86 miles (2.99 km)
Ceiling: unknown
Clouds: missing
Weather: BR  (mist)
Text: BECMG 2309/2311 18010KT
Forecast period: 0900 to 2100 UTC 23 March 2019
Forecast type: BECOMING: Conditions expected to become as follows by 1100 UTC 23 March 2019
Winds: from the S (180 degrees) at 12 MPH (10 knots; 5.1 m/s)
Visibility: 6 or more miles 10+ km)
Ceiling: unknown
Clouds: missing
Weather: NSW  (no significant weather)
Text: BECMG 2321/2323 33012KT
Forecast period: 2100 UTC 23 March 2019 to 0000 UTC 24 March 2019
Forecast type: BECOMING: Conditions expected to become as follows by 2300 UTC 23 March 2019
Winds: from the NNW (330 degrees) at 14 MPH (12 knots; 6.2 m/s)
Visibility: 6 or more miles 10+ km)
Ceiling: unknown
Clouds: missing
Weather: NSW  (no significant weather)
Text: PROB40 2321/2324 BKN012
Forecast period: 2100 UTC 23 March 2019 to 0000 UTC 24 March 2019
Forecast type: PROBABLE: 40 percent likelihood of the following during this time
Visibility: missing
Ceiling: 1200 feet AGL
Clouds: broken clouds at 1200 feet AGL
Weather: no significant weather forecast for this period